createdAt,value
2023-03-13T00:00:28.710Z,0.00
2023-03-13T00:01:28.531Z,0.00
2023-03-13T00:02:28.546Z,0.00
2023-03-13T00:03:28.502Z,0.00
2023-03-13T00:04:28.495Z,0.00
2023-03-13T00:05:28.650Z,0.00
2023-03-13T00:06:28.639Z,0.00
2023-03-13T00:07:28.440Z,0.00
2023-03-13T00:08:28.430Z,0.00
2023-03-13T00:09:28.408Z,0.00
2023-03-13T00:10:28.408Z,0.00
2023-03-13T00:11:28.413Z,0.00
2023-03-13T00:12:28.384Z,0.00
2023-03-13T00:13:28.364Z,0.00
2023-03-13T00:14:28.344Z,0.00
2023-03-13T00:15:28.343Z,0.00
2023-03-13T00:16:28.376Z,0.00
2023-03-13T00:17:28.482Z,0.00
2023-03-13T00:18:28.474Z,0.00
2023-03-13T00:19:28.284Z,0.00
2023-03-13T00:20:28.285Z,0.00
2023-03-13T00:21:28.287Z,0.00
2023-03-13T00:22:28.246Z,0.00
2023-03-13T00:23:28.263Z,0.00
2023-03-13T00:24:28.406Z,0.00
2023-03-13T00:25:28.213Z,0.00
2023-03-13T00:26:28.342Z,0.00
2023-03-13T00:27:28.172Z,0.00
2023-03-13T00:28:28.171Z,0.00
2023-03-13T00:29:28.153Z,0.00
2023-03-13T00:30:28.224Z,0.00
2023-03-13T00:31:28.216Z,0.00
2023-03-13T00:32:28.422Z,0.00
2023-03-13T00:33:28.107Z,0.00
2023-03-13T00:34:28.108Z,0.00
2023-03-13T00:35:28.389Z,0.00
2023-03-13T00:36:28.057Z,0.00
2023-03-13T00:37:28.048Z,0.00
2023-03-13T00:38:28.040Z,0.00
2023-03-13T00:39:28.047Z,0.00
2023-03-13T00:40:28.016Z,0.00
2023-03-13T00:41:28.010Z,0.00
2023-03-13T00:42:27.989Z,0.00
2023-03-13T00:43:27.978Z,0.00
2023-03-13T00:44:28.125Z,0.00
2023-03-13T00:45:27.946Z,0.00
2023-03-13T00:46:28.180Z,0.00
2023-03-13T00:47:27.935Z,0.00
2023-03-13T00:48:27.916Z,0.00
2023-03-13T00:49:27.897Z,0.00
2023-03-13T00:50:27.892Z,0.00
2023-03-13T00:51:27.886Z,0.00
2023-03-13T00:52:27.855Z,0.00
2023-03-13T00:53:27.846Z,0.00
2023-03-13T00:54:27.824Z,0.00
2023-03-13T00:55:27.817Z,0.00
2023-03-13T00:56:27.982Z,0.00
2023-03-13T00:57:27.964Z,0.00
2023-03-13T00:58:27.776Z,0.00
2023-03-13T00:59:27.764Z,0.00
2023-03-13T01:00:27.763Z,0.00
2023-03-13T01:01:27.732Z,0.00
2023-03-13T01:02:28.039Z,0.00
2023-03-13T01:03:27.757Z,0.00
2023-03-13T01:04:27.885Z,0.00
2023-03-13T01:05:27.685Z,0.00
2023-03-13T01:06:27.673Z,0.00
2023-03-13T01:07:27.678Z,0.00
2023-03-13T01:08:27.659Z,0.00
2023-03-13T01:09:27.660Z,0.00
2023-03-13T01:10:27.635Z,0.00
2023-03-13T01:11:27.613Z,0.00
2023-03-13T01:12:27.777Z,0.00
2023-03-13T01:13:27.588Z,0.00
2023-03-13T01:14:27.587Z,0.00
2023-03-13T01:15:27.566Z,0.00
2023-03-13T01:16:27.563Z,0.00
2023-03-13T01:17:27.527Z,0.00
2023-03-13T01:18:27.528Z,0.00
2023-03-13T01:19:27.853Z,0.00
2023-03-13T01:20:27.510Z,0.00
2023-03-13T01:21:27.493Z,0.00
2023-03-13T01:22:27.478Z,0.00
2023-03-13T01:23:27.464Z,0.00
2023-03-13T01:24:27.627Z,0.00
2023-03-13T01:25:27.437Z,0.00
2023-03-13T01:26:27.428Z,0.00
2023-03-13T01:27:27.425Z,0.00
2023-03-13T01:28:27.423Z,0.00
2023-03-13T01:29:27.559Z,0.00
2023-03-13T01:30:27.380Z,0.00
2023-03-13T01:31:27.424Z,0.00
2023-03-13T01:32:27.453Z,0.00
2023-03-13T01:33:27.336Z,0.00
2023-03-13T01:34:27.504Z,0.00
2023-03-13T01:35:27.357Z,0.00
2023-03-13T01:36:27.317Z,0.00
2023-03-13T01:37:27.286Z,0.00
2023-03-13T01:38:27.267Z,0.00
2023-03-13T01:39:27.255Z,0.00
2023-03-13T01:40:27.245Z,0.00
2023-03-13T01:41:27.264Z,0.00
2023-03-13T01:42:27.225Z,0.00
2023-03-13T01:43:27.740Z,0.00
2023-03-13T01:44:27.205Z,0.00
2023-03-13T01:45:27.178Z,0.00
2023-03-13T01:46:27.263Z,0.00
2023-03-13T01:47:27.325Z,0.00
2023-03-13T01:48:27.148Z,0.00
2023-03-13T01:49:27.150Z,0.00
2023-03-13T01:50:27.111Z,0.00
2023-03-13T01:51:27.111Z,0.00
2023-03-13T01:52:27.286Z,0.00
2023-03-13T01:53:27.073Z,0.00
2023-03-13T01:54:27.242Z,0.00
2023-03-13T01:55:27.067Z,0.00
2023-03-13T01:56:27.094Z,0.00
2023-03-13T01:57:27.042Z,0.00
2023-03-13T01:58:27.022Z,0.00
2023-03-13T01:59:27.166Z,0.00
2023-03-13T02:00:26.996Z,0.00
2023-03-13T02:01:27.042Z,0.00
2023-03-13T02:02:27.080Z,0.00
2023-03-13T02:03:26.947Z,0.00
2023-03-13T02:04:27.120Z,0.00
2023-03-13T02:05:26.934Z,0.00
2023-03-13T02:06:26.912Z,0.00
2023-03-13T02:07:26.899Z,0.00
2023-03-13T02:08:26.880Z,0.00
2023-03-13T02:09:27.061Z,0.00
2023-03-13T02:10:26.885Z,0.00
2023-03-13T02:11:26.841Z,0.00
2023-03-13T02:12:26.840Z,0.00
2023-03-13T02:13:26.819Z,0.00
2023-03-13T02:14:26.988Z,0.00
2023-03-13T02:15:26.789Z,0.00
2023-03-13T02:16:26.849Z,0.00
2023-03-13T02:17:26.768Z,0.00
2023-03-13T02:18:26.756Z,0.00
2023-03-13T02:19:26.912Z,0.00
2023-03-13T02:20:26.741Z,0.00
2023-03-13T02:21:26.711Z,0.00
2023-03-13T02:22:26.701Z,0.00
2023-03-13T02:23:26.677Z,0.00
2023-03-13T02:24:26.686Z,0.00
2023-03-13T02:25:26.668Z,0.00
2023-03-13T02:26:26.648Z,0.00
2023-03-13T02:27:26.635Z,0.00
2023-03-13T02:28:26.618Z,0.00
2023-03-13T02:29:26.605Z,0.00
2023-03-13T02:30:26.782Z,0.00
2023-03-13T02:31:26.618Z,0.00
2023-03-13T02:32:26.649Z,0.00
2023-03-13T02:33:26.560Z,0.00
2023-03-13T02:34:26.543Z,0.00
2023-03-13T02:35:26.562Z,0.00
2023-03-13T02:36:26.543Z,0.00
2023-03-13T02:37:26.686Z,0.00
2023-03-13T02:38:26.517Z,0.00
2023-03-13T02:39:26.485Z,0.00
2023-03-13T02:40:26.470Z,0.00
2023-03-13T02:41:26.461Z,0.00
2023-03-13T02:42:26.651Z,0.00
2023-03-13T02:43:26.438Z,0.00
2023-03-13T02:44:26.602Z,0.00
2023-03-13T02:45:26.403Z,0.00
2023-03-13T02:46:26.460Z,0.00
2023-03-13T02:47:26.385Z,0.00
2023-03-13T02:48:26.543Z,0.00
2023-03-13T02:49:26.365Z,0.00
2023-03-13T02:50:26.525Z,0.00
2023-03-13T02:51:26.328Z,0.00
2023-03-13T02:52:26.332Z,0.00
2023-03-13T02:53:26.306Z,0.00
2023-03-13T02:54:26.295Z,0.00
2023-03-13T02:55:26.445Z,0.00
2023-03-13T02:56:26.293Z,0.00
2023-03-13T02:57:26.254Z,0.00
2023-03-13T02:58:26.248Z,0.00
2023-03-13T02:59:26.225Z,0.00
2023-03-13T03:00:26.387Z,0.00
2023-03-13T03:01:26.214Z,0.00
2023-03-13T03:02:26.195Z,0.00
2023-03-13T03:03:26.354Z,0.00
2023-03-13T03:04:26.176Z,0.00
2023-03-13T03:05:26.156Z,0.00
2023-03-13T03:06:26.147Z,0.00
2023-03-13T03:07:26.135Z,0.00
2023-03-13T03:08:26.129Z,0.00
2023-03-13T03:09:26.111Z,0.00
2023-03-13T03:10:26.097Z,0.00
2023-03-13T03:11:26.074Z,0.00
2023-03-13T03:12:26.064Z,0.00
2023-03-13T03:13:26.223Z,0.00
2023-03-13T03:14:26.045Z,0.00
2023-03-13T03:15:26.023Z,0.00
2023-03-13T03:16:26.054Z,0.00
2023-03-13T03:17:26.001Z,0.00
2023-03-13T03:18:26.170Z,0.00
2023-03-13T03:19:25.976Z,0.00
2023-03-13T03:20:26.142Z,0.00
2023-03-13T03:21:25.943Z,0.00
2023-03-13T03:22:25.936Z,0.00
2023-03-13T03:23:25.920Z,0.00
2023-03-13T03:24:26.079Z,0.00
2023-03-13T03:25:26.068Z,0.00
2023-03-13T03:26:25.876Z,0.00
2023-03-13T03:27:25.870Z,0.00
2023-03-13T03:28:25.855Z,0.00
2023-03-13T03:29:26.020Z,0.00
2023-03-13T03:30:25.834Z,0.00
2023-03-13T03:31:25.859Z,0.00
2023-03-13T03:32:25.823Z,0.00
2023-03-13T03:33:25.792Z,0.00
2023-03-13T03:34:25.772Z,0.00
2023-03-13T03:35:25.762Z,0.00
2023-03-13T03:36:25.763Z,0.00
2023-03-13T03:37:25.739Z,0.00
2023-03-13T03:38:25.712Z,0.00
2023-03-13T03:39:25.702Z,0.00
2023-03-13T03:40:25.692Z,0.00
2023-03-13T03:41:25.855Z,0.00
2023-03-13T03:42:25.845Z,0.00
2023-03-13T03:43:25.652Z,0.00
2023-03-13T03:44:25.648Z,0.00
2023-03-13T03:45:25.624Z,0.00
2023-03-13T03:46:25.630Z,0.00
2023-03-13T03:47:25.817Z,0.00
2023-03-13T03:48:25.589Z,0.00
2023-03-13T03:49:25.576Z,0.00
2023-03-13T03:50:25.566Z,0.00
2023-03-13T03:51:26.549Z,0.00
2023-03-13T03:52:25.732Z,0.00
2023-03-13T03:53:25.532Z,0.00
2023-03-13T03:54:25.518Z,0.00
2023-03-13T03:55:25.500Z,0.00
2023-03-13T03:56:25.493Z,0.00
2023-03-13T03:57:25.641Z,0.00
2023-03-13T03:58:25.652Z,0.00
2023-03-13T03:59:25.450Z,0.00
2023-03-13T04:00:25.440Z,0.00
2023-03-13T04:01:25.430Z,0.00
2023-03-13T04:02:25.462Z,0.00
2023-03-13T04:03:25.598Z,0.00
2023-03-13T04:04:25.397Z,0.00
2023-03-13T04:05:25.377Z,0.00
2023-03-13T04:06:25.359Z,0.00
2023-03-13T04:07:25.357Z,0.00
2023-03-13T04:08:25.511Z,0.00
2023-03-13T04:09:25.321Z,0.00
2023-03-13T04:10:25.324Z,0.00
2023-03-13T04:11:25.293Z,0.00
2023-03-13T04:12:25.290Z,0.00
2023-03-13T04:13:25.478Z,0.00
2023-03-13T04:14:25.261Z,0.00
2023-03-13T04:15:25.251Z,0.00
2023-03-13T04:16:25.291Z,0.00
2023-03-13T04:17:25.216Z,0.00
2023-03-13T04:18:25.392Z,0.00
2023-03-13T04:19:25.381Z,0.00
2023-03-13T04:20:25.191Z,0.00
2023-03-13T04:21:25.174Z,0.00
2023-03-13T04:22:25.172Z,0.00
2023-03-13T04:23:25.338Z,0.00
2023-03-13T04:24:25.320Z,0.00
2023-03-13T04:25:25.128Z,0.00
2023-03-13T04:26:25.130Z,0.00
2023-03-13T04:27:25.092Z,0.00
2023-03-13T04:28:25.094Z,0.00
2023-03-13T04:29:25.078Z,0.00
2023-03-13T04:30:25.058Z,0.00
2023-03-13T04:31:25.041Z,0.00
2023-03-13T04:32:25.076Z,0.00
2023-03-13T04:33:25.008Z,0.00
2023-03-13T04:34:25.184Z,0.00
2023-03-13T04:35:25.238Z,0.00
2023-03-13T04:36:25.255Z,0.00
2023-03-13T04:37:24.966Z,0.00
2023-03-13T04:38:24.955Z,0.00
2023-03-13T04:39:24.935Z,0.00
2023-03-13T04:40:25.108Z,0.00
2023-03-13T04:41:24.908Z,0.00
2023-03-13T04:42:24.907Z,0.00
2023-03-13T04:43:24.876Z,0.00
2023-03-13T04:44:25.047Z,0.00
2023-03-13T04:45:24.864Z,0.00
2023-03-13T04:46:24.907Z,0.00
2023-03-13T04:47:24.836Z,0.00
2023-03-13T04:48:24.817Z,0.00
2023-03-13T04:49:24.997Z,0.00
2023-03-13T04:50:24.796Z,0.00
2023-03-13T04:51:24.782Z,0.00
2023-03-13T04:52:24.790Z,0.00
2023-03-13T04:53:24.755Z,0.00
2023-03-13T04:54:24.927Z,0.00
2023-03-13T04:55:24.916Z,0.00
2023-03-13T04:56:41.203Z,0.00
2023-03-13T04:57:25.700Z,0.00
2023-03-13T04:58:24.692Z,0.00
2023-03-13T04:59:24.675Z,0.00
2023-03-13T05:00:24.869Z,0.00
2023-03-13T05:01:24.743Z,0.00
2023-03-13T05:02:24.638Z,0.00
2023-03-13T05:03:24.627Z,0.00
2023-03-13T05:04:24.622Z,0.00
2023-03-13T05:05:24.838Z,0.00
2023-03-13T05:06:24.597Z,0.00
2023-03-13T05:07:24.583Z,0.00
2023-03-13T05:08:24.569Z,0.00
2023-03-13T05:09:24.550Z,0.00
2023-03-13T05:10:24.714Z,0.00
2023-03-13T05:11:24.523Z,0.00
2023-03-13T05:12:24.512Z,0.00
2023-03-13T05:13:24.503Z,0.00
2023-03-13T05:14:24.492Z,0.00
2023-03-13T05:15:24.642Z,0.00
2023-03-13T05:16:24.548Z,0.00
2023-03-13T05:17:24.442Z,0.00
2023-03-13T05:18:24.438Z,0.00
2023-03-13T05:19:24.422Z,0.00
2023-03-13T05:20:24.590Z,0.00
2023-03-13T05:21:24.571Z,0.00
2023-03-13T05:22:24.562Z,0.00
2023-03-13T05:23:24.375Z,0.00
2023-03-13T05:24:24.363Z,0.00
2023-03-13T05:25:24.340Z,0.00
2023-03-13T05:26:24.340Z,0.00
2023-03-13T05:27:24.489Z,0.00
2023-03-13T05:28:24.309Z,0.00
2023-03-13T05:29:24.293Z,0.00
2023-03-13T05:30:24.283Z,0.00
2023-03-13T05:31:24.292Z,0.00
2023-03-13T05:32:24.474Z,0.00
2023-03-13T05:33:24.247Z,0.00
2023-03-13T05:34:24.231Z,0.00
2023-03-13T05:35:24.234Z,0.00
2023-03-13T05:36:24.206Z,0.00
2023-03-13T05:37:24.377Z,0.00
2023-03-13T05:38:24.180Z,0.00
2023-03-13T05:39:24.158Z,0.00
2023-03-13T05:40:24.157Z,0.00
2023-03-13T05:41:25.077Z,0.00
2023-03-13T05:42:24.138Z,0.00
2023-03-13T05:43:24.137Z,0.00
2023-03-13T05:44:24.096Z,0.00
2023-03-13T05:45:24.088Z,0.00
2023-03-13T05:46:24.088Z,0.00
2023-03-13T05:47:24.057Z,0.00
2023-03-13T05:48:24.057Z,0.00
2023-03-13T05:49:24.038Z,0.00
2023-03-13T05:50:24.035Z,0.00
2023-03-13T05:51:24.743Z,0.00
2023-03-13T05:52:23.984Z,0.00
2023-03-13T05:53:24.154Z,0.00
2023-03-13T05:54:23.964Z,0.00
2023-03-13T05:55:23.950Z,0.00
2023-03-13T05:56:23.936Z,0.00
2023-03-13T05:57:23.931Z,0.00
2023-03-13T05:58:23.930Z,0.00
2023-03-13T05:59:23.911Z,0.00
2023-03-13T06:00:23.886Z,0.00
2023-03-13T06:01:23.870Z,0.00
2023-03-13T06:02:23.858Z,0.00
2023-03-13T06:03:24.070Z,0.00
2023-03-13T06:04:24.155Z,0.00
2023-03-13T06:05:23.825Z,0.00
2023-03-13T06:06:23.830Z,0.00
2023-03-13T06:07:23.795Z,0.00
2023-03-13T06:08:23.783Z,0.00
2023-03-13T06:09:23.775Z,0.00
2023-03-13T06:10:23.755Z,0.00
2023-03-13T06:11:23.755Z,0.00
2023-03-13T06:12:23.733Z,0.00
2023-03-13T06:13:23.713Z,0.00
2023-03-13T06:14:23.875Z,0.00
2023-03-13T06:15:23.872Z,0.00
2023-03-13T06:16:23.765Z,0.00
2023-03-13T06:17:23.673Z,0.00
2023-03-13T06:18:23.659Z,0.00
2023-03-13T06:19:23.640Z,0.00
2023-03-13T06:20:23.811Z,0.00
2023-03-13T06:21:23.610Z,0.00
2023-03-13T06:22:23.597Z,0.00
2023-03-13T06:23:23.580Z,0.00
2023-03-13T06:24:23.572Z,0.00
2023-03-13T06:25:23.553Z,0.00
2023-03-13T06:26:23.561Z,0.00
2023-03-13T06:27:23.599Z,0.00
2023-03-13T06:28:23.525Z,0.00
2023-03-13T06:29:23.532Z,0.00
2023-03-13T06:30:23.490Z,0.00
2023-03-13T06:31:23.532Z,0.00
2023-03-13T06:32:23.587Z,0.00
2023-03-13T06:33:23.527Z,0.00
2023-03-13T06:34:23.467Z,0.00
2023-03-13T06:35:23.428Z,0.00
2023-03-13T06:36:23.432Z,0.00
2023-03-13T06:37:23.579Z,0.00
2023-03-13T06:38:23.391Z,0.00
2023-03-13T06:39:23.381Z,0.00
2023-03-13T06:40:23.366Z,0.00
2023-03-13T06:41:23.352Z,0.00
2023-03-13T06:42:23.510Z,0.00
2023-03-13T06:43:23.354Z,0.00
2023-03-13T06:44:23.323Z,0.00
2023-03-13T06:45:23.309Z,0.00
2023-03-13T06:46:23.299Z,0.00
2023-03-13T06:47:24.149Z,5.62
2023-03-13T06:48:23.263Z,5.62
2023-03-13T06:49:23.252Z,5.62
2023-03-13T06:50:23.256Z,5.62
2023-03-13T06:51:23.219Z,5.62
2023-03-13T06:52:31.413Z,5.62
2023-03-13T06:53:24.202Z,5.62
2023-03-13T06:54:23.364Z,0.00
2023-03-13T06:55:23.177Z,0.00
2023-03-13T06:56:23.167Z,0.00
2023-03-13T06:57:23.146Z,0.00
2023-03-13T06:58:32.243Z,0.00
2023-03-13T06:59:24.120Z,0.00
2023-03-13T07:00:23.095Z,0.00
2023-03-13T07:01:23.309Z,0.00
2023-03-13T07:02:23.075Z,0.00
2023-03-13T07:03:23.063Z,0.00
2023-03-13T07:04:23.162Z,0.00
2023-03-13T07:05:23.049Z,0.00
2023-03-13T07:06:23.237Z,0.00
2023-03-13T07:07:31.729Z,0.00
2023-03-13T07:08:24.014Z,0.00
2023-03-13T07:09:23.001Z,0.00
2023-03-13T07:10:25.076Z,0.00
2023-03-13T07:11:22.975Z,0.00
2023-03-13T07:12:22.969Z,0.00
2023-03-13T07:13:22.941Z,0.00
2023-03-13T07:14:22.934Z,0.00
2023-03-13T07:15:22.929Z,5.62
2023-03-13T07:16:23.034Z,5.62
2023-03-13T07:17:22.998Z,5.62
2023-03-13T07:18:22.902Z,5.62
2023-03-13T07:19:22.889Z,5.62
2023-03-13T07:20:22.917Z,5.62
2023-03-13T07:21:22.838Z,5.62
2023-03-13T07:22:22.848Z,5.62
2023-03-13T07:23:22.806Z,5.62
2023-03-13T07:24:22.839Z,5.62
2023-03-13T07:25:22.784Z,0.00
2023-03-13T07:26:22.857Z,5.62
2023-03-13T07:27:22.819Z,5.62
2023-03-13T07:28:22.750Z,5.62
2023-03-13T07:29:22.762Z,5.62
2023-03-13T07:30:22.753Z,5.62
2023-03-13T07:31:22.763Z,5.62
2023-03-13T07:32:22.765Z,5.62
2023-03-13T07:33:22.671Z,5.62
2023-03-13T07:34:22.689Z,5.62
2023-03-13T07:35:22.656Z,5.62
2023-03-13T07:36:22.857Z,5.62
2023-03-13T07:37:22.626Z,5.62
2023-03-13T07:38:22.622Z,5.62
2023-03-13T07:39:22.609Z,5.62
2023-03-13T07:40:22.606Z,11.25
2023-03-13T07:41:22.592Z,11.25
2023-03-13T07:42:22.563Z,11.25
2023-03-13T07:43:22.550Z,11.25
2023-03-13T07:44:22.554Z,11.25
2023-03-13T07:45:22.522Z,11.25
2023-03-13T07:46:22.738Z,5.62
2023-03-13T07:47:22.513Z,5.62
2023-03-13T07:48:22.494Z,5.62
2023-03-13T07:49:22.465Z,5.62
2023-03-13T07:50:22.522Z,5.62
2023-03-13T07:51:33.464Z,5.62
2023-03-13T07:52:23.443Z,5.62
2023-03-13T07:53:22.431Z,5.62
2023-03-13T07:54:22.429Z,5.62
2023-03-13T07:55:22.382Z,5.62
2023-03-13T07:56:22.567Z,5.62
2023-03-13T07:57:22.375Z,5.62
2023-03-13T07:58:22.364Z,5.62
2023-03-13T07:59:22.363Z,5.62
2023-03-13T08:00:22.344Z,5.62
2023-03-13T08:01:24.440Z,11.25
2023-03-13T08:02:22.387Z,5.62
2023-03-13T08:03:22.523Z,5.62
2023-03-13T08:04:22.301Z,5.62
2023-03-13T08:05:22.263Z,5.62
2023-03-13T08:06:22.261Z,5.62
2023-03-13T08:07:22.231Z,5.62
2023-03-13T08:08:22.237Z,5.62
2023-03-13T08:09:22.407Z,5.62
2023-03-13T08:10:22.372Z,5.62
2023-03-13T08:11:22.182Z,5.62
2023-03-13T08:12:22.171Z,5.62
2023-03-13T08:13:22.149Z,5.62
2023-03-13T08:14:22.319Z,5.62
2023-03-13T08:15:22.136Z,5.62
2023-03-13T08:16:22.330Z,5.62
2023-03-13T08:17:22.104Z,5.62
2023-03-13T08:18:22.247Z,5.62
2023-03-13T08:19:22.077Z,5.62
2023-03-13T08:20:22.085Z,5.62
2023-03-13T08:21:22.065Z,5.62
2023-03-13T08:22:22.045Z,5.62
2023-03-13T08:23:22.039Z,5.62
2023-03-13T08:24:22.015Z,5.62
2023-03-13T08:25:21.996Z,5.62
2023-03-13T08:26:22.074Z,5.62
2023-03-13T08:27:21.972Z,5.62
2023-03-13T08:28:22.157Z,5.62
2023-03-13T08:29:21.939Z,5.62
2023-03-13T08:30:21.941Z,5.62
2023-03-13T08:31:21.944Z,5.62
2023-03-13T08:32:22.039Z,5.62
2023-03-13T08:33:22.081Z,5.62
2023-03-13T08:34:21.897Z,5.62
2023-03-13T08:35:21.932Z,5.62
2023-03-13T08:36:21.880Z,5.62
2023-03-13T08:37:21.846Z,5.62
2023-03-13T08:38:22.021Z,11.25
2023-03-13T08:39:22.003Z,11.25
2023-03-13T08:40:21.821Z,11.25
2023-03-13T08:41:21.790Z,11.25
2023-03-13T08:42:21.768Z,11.25
2023-03-13T08:43:21.775Z,11.25
2023-03-13T08:44:21.944Z,5.62
2023-03-13T08:45:21.746Z,5.62
2023-03-13T08:46:21.783Z,5.62
2023-03-13T08:47:21.721Z,5.62
2023-03-13T08:48:21.715Z,5.62
2023-03-13T08:49:21.874Z,5.62
2023-03-13T08:50:21.863Z,5.62
2023-03-13T08:51:21.672Z,5.62
2023-03-13T08:52:21.661Z,5.62
2023-03-13T08:53:21.670Z,5.62
2023-03-13T08:54:21.651Z,5.62
2023-03-13T08:55:21.646Z,11.25
2023-03-13T08:56:21.614Z,11.25
2023-03-13T08:57:21.593Z,11.25
2023-03-13T08:58:21.590Z,11.25
2023-03-13T08:59:21.573Z,11.25
2023-03-13T09:00:21.576Z,5.62
2023-03-13T09:01:21.559Z,5.62
2023-03-13T09:02:21.586Z,5.62
2023-03-13T09:03:21.548Z,5.62
2023-03-13T09:04:21.512Z,0.00
2023-03-13T09:05:21.500Z,0.00
2023-03-13T09:06:21.486Z,5.62
2023-03-13T09:07:21.495Z,5.62
2023-03-13T09:08:21.633Z,5.62
2023-03-13T09:09:23.261Z,5.62
2023-03-13T09:10:21.428Z,11.25
2023-03-13T09:11:21.431Z,11.25
2023-03-13T09:12:30.287Z,11.25
2023-03-13T09:13:22.412Z,16.88
2023-03-13T09:14:21.551Z,16.88
2023-03-13T09:15:21.371Z,11.25
2023-03-13T09:16:21.434Z,16.88
2023-03-13T09:17:21.351Z,16.88
2023-03-13T09:18:21.352Z,22.50
2023-03-13T09:19:21.486Z,28.12
2023-03-13T09:20:21.312Z,33.75
2023-03-13T09:21:21.301Z,33.75
2023-03-13T09:22:21.289Z,45.00
2023-03-13T09:23:21.269Z,45.00
2023-03-13T09:24:21.259Z,33.75
2023-03-13T09:25:21.555Z,33.75
2023-03-13T09:26:23.229Z,45.00
2023-03-13T09:27:21.209Z,33.75
2023-03-13T09:28:21.195Z,33.75
2023-03-13T09:29:21.186Z,39.38
2023-03-13T09:30:21.179Z,39.38
2023-03-13T09:31:21.223Z,28.12
2023-03-13T09:32:21.227Z,22.50
2023-03-13T09:33:21.150Z,28.12
2023-03-13T09:34:21.116Z,28.12
2023-03-13T09:35:21.128Z,33.75
2023-03-13T09:36:22.541Z,33.75
2023-03-13T09:37:21.092Z,33.75
2023-03-13T09:38:21.092Z,33.75
2023-03-13T09:39:21.067Z,33.75
2023-03-13T09:40:21.047Z,33.75
2023-03-13T09:41:21.212Z,28.12
2023-03-13T09:42:21.016Z,16.88
2023-03-13T09:43:21.013Z,11.25
2023-03-13T09:44:20.995Z,11.25
2023-03-13T09:45:20.991Z,16.88
2023-03-13T09:46:21.168Z,22.50
2023-03-13T09:47:20.970Z,28.12
2023-03-13T09:48:20.945Z,28.12
2023-03-13T09:49:20.965Z,28.12
2023-03-13T09:50:20.915Z,28.12
2023-03-13T09:51:20.914Z,22.50
2023-03-13T09:52:21.077Z,16.88
2023-03-13T09:53:20.886Z,11.25
2023-03-13T09:54:20.865Z,11.25
2023-03-13T09:55:20.860Z,16.88
2023-03-13T09:56:20.851Z,22.50
2023-03-13T09:57:20.839Z,22.50
2023-03-13T09:58:20.816Z,22.50
2023-03-13T09:59:20.810Z,22.50
2023-03-13T10:00:20.787Z,28.12
2023-03-13T10:01:20.822Z,50.62
2023-03-13T10:02:20.781Z,39.38
2023-03-13T10:03:20.759Z,33.75
2023-03-13T10:04:20.762Z,28.12
2023-03-13T10:05:20.732Z,22.50
2023-03-13T10:06:20.709Z,22.50
2023-03-13T10:07:20.722Z,16.88
2023-03-13T10:08:20.873Z,22.50
2023-03-13T10:09:20.683Z,22.50
2023-03-13T10:10:20.742Z,28.12
2023-03-13T10:11:20.656Z,28.12
2023-03-13T10:12:20.648Z,28.12
2023-03-13T10:13:20.636Z,28.12
2023-03-13T10:14:20.609Z,28.12
2023-03-13T10:15:20.593Z,28.12
2023-03-13T10:16:20.649Z,28.12
2023-03-13T10:17:20.609Z,28.12
2023-03-13T10:18:20.574Z,39.38
2023-03-13T10:19:20.589Z,33.75
2023-03-13T10:20:20.580Z,28.12
2023-03-13T10:21:20.514Z,33.75
2023-03-13T10:22:20.683Z,39.38
2023-03-13T10:23:20.504Z,39.38
2023-03-13T10:24:20.473Z,33.75
2023-03-13T10:25:20.479Z,56.25
2023-03-13T10:26:20.453Z,45.00
2023-03-13T10:27:20.624Z,50.62
2023-03-13T10:28:20.425Z,56.25
2023-03-13T10:29:20.436Z,45.00
2023-03-13T10:30:20.403Z,50.62
2023-03-13T10:31:20.457Z,45.00
2023-03-13T10:32:20.422Z,101.25
2023-03-13T10:33:20.393Z,39.38
2023-03-13T10:34:20.363Z,50.62
2023-03-13T10:35:20.492Z,33.75
2023-03-13T10:36:20.401Z,33.75
2023-03-13T10:37:20.339Z,33.75
2023-03-13T10:38:20.321Z,33.75
2023-03-13T10:39:20.327Z,45.00
2023-03-13T10:40:20.281Z,84.38
2023-03-13T10:41:20.280Z,50.62
2023-03-13T10:42:20.258Z,50.62
2023-03-13T10:43:22.397Z,50.62
2023-03-13T10:44:20.227Z,45.00
2023-03-13T10:45:20.220Z,45.00
2023-03-13T10:46:20.265Z,50.62
2023-03-13T10:47:20.192Z,67.50
2023-03-13T10:48:20.182Z,90.00
2023-03-13T10:49:20.343Z,90.00
2023-03-13T10:50:20.174Z,39.38
2023-03-13T10:51:20.152Z,45.00
2023-03-13T10:52:20.151Z,33.75
2023-03-13T10:53:20.131Z,78.75
2023-03-13T10:54:20.121Z,45.00
2023-03-13T10:55:20.105Z,50.62
2023-03-13T10:56:20.070Z,39.38
2023-03-13T10:57:20.096Z,39.38
2023-03-13T10:58:20.060Z,33.75
2023-03-13T10:59:20.298Z,39.38
2023-03-13T11:00:20.073Z,56.25
2023-03-13T11:01:20.029Z,123.75
2023-03-13T11:02:20.049Z,61.88
2023-03-13T11:03:20.044Z,50.62
2023-03-13T11:04:19.997Z,45.00
2023-03-13T11:05:20.039Z,45.00
2023-03-13T11:06:20.171Z,67.50
2023-03-13T11:07:20.001Z,106.88
2023-03-13T11:08:20.080Z,45.00
2023-03-13T11:09:19.981Z,50.62
2023-03-13T11:10:19.912Z,50.62
2023-03-13T11:11:19.917Z,50.62
2023-03-13T11:12:19.881Z,50.62
2023-03-13T11:13:30.648Z,50.62
2023-03-13T11:14:20.853Z,56.25
2023-03-13T11:15:19.875Z,45.00
2023-03-13T11:16:20.072Z,33.75
2023-03-13T11:17:19.820Z,39.38
2023-03-13T11:18:20.744Z,39.38
2023-03-13T11:19:19.795Z,45.00
2023-03-13T11:20:19.771Z,50.62
2023-03-13T11:21:19.773Z,50.62
2023-03-13T11:22:19.835Z,45.00
2023-03-13T11:23:19.726Z,84.38
2023-03-13T11:24:19.718Z,61.88
2023-03-13T11:25:19.700Z,61.88
2023-03-13T11:26:19.724Z,56.25
2023-03-13T11:27:19.895Z,56.25
2023-03-13T11:28:19.680Z,61.88
2023-03-13T11:29:19.767Z,61.88
2023-03-13T11:30:19.641Z,61.88
2023-03-13T11:31:19.687Z,50.62
2023-03-13T11:32:19.847Z,39.38
2023-03-13T11:33:19.599Z,39.38
2023-03-13T11:34:19.586Z,39.38
2023-03-13T11:35:19.607Z,39.38
2023-03-13T11:36:19.567Z,45.00
2023-03-13T11:37:19.872Z,45.00
2023-03-13T11:38:19.539Z,39.38
2023-03-13T11:39:19.521Z,39.38
2023-03-13T11:40:19.555Z,39.38
2023-03-13T11:41:19.531Z,45.00
2023-03-13T11:42:19.656Z,56.25
2023-03-13T11:43:25.338Z,56.25
2023-03-13T11:44:20.542Z,39.38
2023-03-13T11:45:19.534Z,45.00
2023-03-13T11:46:19.632Z,50.62
2023-03-13T11:47:19.412Z,50.62
2023-03-13T11:48:19.607Z,45.00
2023-03-13T11:49:19.386Z,45.00
2023-03-13T11:50:19.419Z,39.38
2023-03-13T11:51:20.806Z,45.00
2023-03-13T11:52:19.355Z,33.75
2023-03-13T11:53:19.606Z,33.75
2023-03-13T11:54:19.404Z,129.38
2023-03-13T11:55:19.315Z,84.38
2023-03-13T11:56:19.292Z,146.25
2023-03-13T11:57:19.281Z,61.88
2023-03-13T11:58:19.276Z,50.62
2023-03-13T11:59:19.263Z,135.00
2023-03-13T12:00:19.258Z,140.62
2023-03-13T12:01:19.298Z,67.50
2023-03-13T12:02:19.324Z,67.50
2023-03-13T12:03:19.275Z,106.88
2023-03-13T12:04:19.459Z,112.50
2023-03-13T12:05:19.250Z,45.00
2023-03-13T12:06:27.922Z,67.50
2023-03-13T12:07:20.148Z,135.00
2023-03-13T12:08:19.132Z,135.00
2023-03-13T12:09:19.120Z,112.50
2023-03-13T12:10:19.108Z,112.50
2023-03-13T12:11:19.102Z,112.50
2023-03-13T12:12:19.095Z,78.75
2023-03-13T12:13:19.060Z,112.50
2023-03-13T12:14:19.052Z,61.88
2023-03-13T12:15:19.451Z,118.12
2023-03-13T12:16:19.238Z,56.25
2023-03-13T12:17:19.069Z,50.62
2023-03-13T12:18:19.022Z,61.88
2023-03-13T12:19:19.009Z,50.62
2023-03-13T12:20:18.970Z,45.00
2023-03-13T12:21:18.961Z,45.00
2023-03-13T12:22:18.960Z,39.38
2023-03-13T12:23:18.977Z,39.38
2023-03-13T12:24:18.938Z,50.62
2023-03-13T12:25:18.975Z,45.00
2023-03-13T12:26:18.909Z,61.88
2023-03-13T12:27:18.902Z,78.75
2023-03-13T12:28:18.997Z,39.38
2023-03-13T12:29:18.843Z,39.38
2023-03-13T12:30:18.859Z,45.00
2023-03-13T12:31:18.858Z,39.38
2023-03-13T12:32:18.883Z,50.62
2023-03-13T12:33:18.807Z,112.50
2023-03-13T12:34:18.809Z,84.38
2023-03-13T12:35:18.792Z,45.00
2023-03-13T12:36:18.829Z,39.38
2023-03-13T12:37:18.775Z,39.38
2023-03-13T12:38:18.737Z,39.38
2023-03-13T12:39:18.728Z,45.00
2023-03-13T12:40:18.738Z,39.38
2023-03-13T12:41:18.712Z,39.38
2023-03-13T12:42:18.681Z,33.75
2023-03-13T12:43:18.700Z,33.75
2023-03-13T12:44:18.683Z,33.75
2023-03-13T12:45:18.760Z,33.75
2023-03-13T12:46:18.706Z,28.12
2023-03-13T12:47:18.615Z,22.50
2023-03-13T12:48:18.826Z,28.12
2023-03-13T12:49:18.604Z,33.75
2023-03-13T12:50:18.593Z,22.50
2023-03-13T12:51:18.603Z,22.50
2023-03-13T12:52:18.564Z,22.50
2023-03-13T12:53:20.844Z,22.50
2023-03-13T12:54:18.615Z,22.50
2023-03-13T12:55:18.513Z,22.50
2023-03-13T12:56:18.505Z,28.12
2023-03-13T12:57:18.581Z,28.12
2023-03-13T12:58:18.483Z,28.12
2023-03-13T12:59:18.464Z,28.12
2023-03-13T13:00:18.633Z,28.12
2023-03-13T13:01:18.504Z,22.50
2023-03-13T13:02:18.436Z,22.50
2023-03-13T13:03:18.416Z,28.12
2023-03-13T13:04:18.460Z,28.12
2023-03-13T13:05:18.394Z,28.12
2023-03-13T13:06:18.374Z,33.75
2023-03-13T13:07:18.363Z,33.75
2023-03-13T13:08:19.163Z,39.38
2023-03-13T13:09:18.328Z,39.38